Time;durP1;ratioP1;P1;durP2;ratioP2;P2;SDS_P1;SDS_P2;PMS_P1;PMS_P2;Temp;Humidity;BMP_temperature;BMP_pressure;BME280_temperature;BME280_humidity;BME280_pressure;Samples;Min_cycle;Max_cycle;Signal;HPM_P1;HPM_P2
2022/01/04 00:01:52;;;;;;;6.45;3.65;;;;;;;;;;4854269;29;32526;-69
2022/01/04 00:04:20;;;;;;;6.30;4.32;;;;;;;;;;4858152;29;34875;-69
2022/01/04 00:06:50;;;;;;;4.57;4.22;;;;;;;;;;4852293;29;32651;-70
2022/01/04 00:09:18;;;;;;;6.07;4.82;;;;;;;;;;4859632;29;32627;-68
2022/01/04 00:11:59;;;;;;;4.50;3.97;;;;;;;;;;4860518;29;32860;-70
2022/01/04 00:14:27;;;;;;;;;;;;;;;;;;4858579;29;32504;-73
2022/01/04 00:16:56;;;;;;;4.13;3.72;;;;;;;;;;4853063;29;34085;-70
2022/01/04 00:19:24;;;;;;;4.38;3.97;;;;;;;;;;4856468;29;32578;-70
2022/01/04 00:21:55;;;;;;;8.60;4.40;;;;;;;;;;4852241;29;32418;-69
2022/01/04 00:24:23;;;;;;;4.70;4.15;;;;;;;;;;4855893;29;32748;-69
2022/01/04 00:26:51;;;;;;;4.80;4.22;;;;;;;;;;4849282;29;35278;-69
2022/01/04 00:29:19;;;;;;;5.68;4.00;;;;;;;;;;4846174;29;32347;-69
2022/01/04 00:31:47;;;;;;;5.30;4.70;;;;;;;;;;4848238;29;32353;-70
2022/01/04 00:34:15;;;;;;;5.38;4.88;;;;;;;;;;4846692;29;32651;-72
2022/01/04 00:36:43;;;;;;;5.45;4.28;;;;;;;;;;4835335;29;33908;-69
2022/01/04 00:39:12;;;;;;;4.93;4.50;;;;;;;;;;4864391;29;32481;-70
2022/01/04 00:41:40;;;;;;;5.57;5.07;;;;;;;;;;4863900;29;32332;-74
2022/01/04 00:44:08;;;;;;;6.57;3.95;;;;;;;;;;4861418;29;32473;-69
2022/01/04 00:46:36;;;;;;;6.43;5.13;;;;;;;;;;4862967;29;32486;-74
2022/01/04 00:49:11;;;;;;;5.47;4.97;;;;;;;;;;4862520;29;35302;-71
2022/01/04 00:51:39;;;;;;;5.45;4.68;;;;;;;;;;4863191;29;32509;-68
2022/01/04 00:54:10;;;;;;;5.35;4.85;;;;;;;;;;4862186;29;32583;-71
2022/01/04 00:56:39;;;;;;;5.88;5.28;;;;;;;;;;4860884;29;32511;-72
2022/01/04 00:59:08;;;;;;;8.73;4.57;;;;;;;;;;4861058;29;32497;-69
2022/01/04 01:01:36;;;;;;;5.47;4.95;;;;;;;;;;4844382;29;33081;-69
2022/01/04 01:04:05;;;;;;;5.45;4.95;;;;;;;;;;4861734;29;32434;-69
2022/01/04 01:06:34;;;;;;;5.47;5.03;;;;;;;;;;4863575;29;32517;-71
2022/01/04 01:09:03;;;;;;;6.18;4.55;;;;;;;;;;4866294;29;32570;-69
2022/01/04 01:11:32;;;;;;;8.63;5.13;;;;;;;;;;4866888;29;34590;-70
2022/01/04 01:14:01;;;;;;;5.78;5.20;;;;;;;;;;4850479;29;32534;-70
2022/01/04 01:16:29;;;;;;;6.18;5.43;;;;;;;;;;4868457;29;32480;-71
2022/01/04 01:18:57;;;;;;;6.13;5.63;;;;;;;;;;4867712;29;32566;-71
2022/01/04 01:21:25;;;;;;;5.53;4.90;;;;;;;;;;4868078;29;32464;-69
2022/01/04 01:23:53;;;;;;;8.35;5.57;;;;;;;;;;4869145;29;32107;-70
2022/01/04 01:26:21;;;;;;;5.70;5.25;;;;;;;;;;4848172;29;32591;-68
2022/01/04 01:28:49;;;;;;;5.57;5.07;;;;;;;;;;4847007;29;32471;-69
2022/01/04 01:31:19;;;;;;;6.35;5.75;;;;;;;;;;4848540;29;32380;-70
2022/01/04 01:33:47;;;;;;;7.47;6.20;;;;;;;;;;4849926;29;33993;-68
2022/01/04 01:36:15;;;;;;;6.18;5.57;;;;;;;;;;4850075;29;32440;-69
2022/01/04 01:38:43;;;;;;;6.63;5.60;;;;;;;;;;4849379;29;32375;-71
2022/01/04 01:41:11;;;;;;;7.80;5.70;;;;;;;;;;4851080;29;32449;-69
2022/01/04 01:43:39;;;;;;;8.65;6.13;;;;;;;;;;4849858;29;32565;-67
2022/01/04 01:46:07;;;;;;;6.72;6.13;;;;;;;;;;4850363;29;32184;-74
2022/01/04 01:48:36;;;;;;;6.20;5.70;;;;;;;;;;4849747;29;32286;-75
2022/01/04 01:51:05;;;;;;;6.45;5.85;;;;;;;;;;4832872;29;32476;-70
2022/01/04 01:53:33;;;;;;;7.03;6.43;;;;;;;;;;4850087;29;32297;-72
2022/01/04 01:56:01;;;;;;;6.22;5.63;;;;;;;;;;4849768;29;34621;-70
2022/01/04 01:58:29;;;;;;;9.80;6.78;;;;;;;;;;4849798;29;32464;-72
2022/01/04 02:00:57;;;;;;;6.15;5.55;;;;;;;;;;4855470;29;32235;-70
2022/01/04 02:03:25;;;;;;;7.30;5.97;;;;;;;;;;4868446;29;32376;-68
2022/01/04 02:05:55;;;;;;;10.55;5.97;;;;;;;;;;4868298;29;32553;-70
2022/01/04 02:08:23;;;;;;;6.45;5.60;;;;;;;;;;4867500;29;32601;-69
2022/01/04 02:10:53;;;;;;;8.13;6.68;;;;;;;;;;4868264;29;32372;-70
2022/01/04 02:13:21;;;;;;;9.77;8.77;;;;;;;;;;4868821;29;32429;-70
2022/01/04 02:15:49;;;;;;;6.30;5.80;;;;;;;;;;4868359;29;32470;-68
2022/01/04 02:18:17;;;;;;;6.70;5.78;;;;;;;;;;4868209;29;34569;-69
2022/01/04 02:20:47;;;;;;;7.25;5.85;;;;;;;;;;4866781;29;32676;-67
2022/01/04 02:23:15;;;;;;;10.43;5.75;;;;;;;;;;4865419;29;32532;-69
2022/01/04 02:25:43;;;;;;;7.57;6.18;;;;;;;;;;4866576;29;32303;-73
2022/01/04 02:28:12;;;;;;;6.05;5.45;;;;;;;;;;4867944;29;32412;-73
2022/01/04 02:30:40;;;;;;;6.93;5.72;;;;;;;;;;4864777;29;32533;-69
2022/01/04 02:33:08;;;;;;;6.28;5.57;;;;;;;;;;4867549;29;32455;-70
2022/01/04 02:35:36;;;;;;;6.43;5.65;;;;;;;;;;4867575;29;32432;-68
2022/01/04 02:38:06;;;;;;;6.47;5.88;;;;;;;;;;4850007;29;32635;-71
2022/01/04 02:40:34;;;;;;;6.82;6.22;;;;;;;;;;4866610;29;34210;-71
2022/01/04 02:43:02;;;;;;;6.28;5.68;;;;;;;;;;4867175;29;32829;-73
2022/01/04 02:45:30;;;;;;;7.72;6.13;;;;;;;;;;4868233;29;32301;-72
2022/01/04 02:47:58;;;;;;;8.13;5.97;;;;;;;;;;4867862;29;32138;-72
2022/01/04 02:50:27;;;;;;;7.50;5.15;;;;;;;;;;4851573;29;34599;-68
2022/01/04 02:52:55;;;;;;;6.35;5.40;;;;;;;;;;4851767;29;32297;-69
2022/01/04 02:55:24;;;;;;;6.63;5.85;;;;;;;;;;4867322;29;32374;-71
2022/01/04 02:57:53;;;;;;;7.38;4.72;;;;;;;;;;4868215;29;32350;-75
2022/01/04 03:00:23;;;;;;;7.35;5.75;;;;;;;;;;4867934;29;32222;-72
2022/01/04 03:02:51;;;;;;;5.55;5.05;;;;;;;;;;4867993;29;34124;-69
2022/01/04 03:05:19;;;;;;;5.88;5.30;;;;;;;;;;4867467;29;32355;-69
2022/01/04 03:07:47;;;;;;;5.63;5.18;;;;;;;;;;4864779;29;32848;-71
2022/01/04 03:10:15;;;;;;;7.38;5.07;;;;;;;;;;4849531;29;32254;-70
2022/01/04 03:12:44;;;;;;;5.85;5.35;;;;;;;;;;4849057;29;34538;-70
2022/01/04 03:15:13;;;;;;;6.03;5.45;;;;;;;;;;4849334;29;32399;-69
2022/01/04 03:17:42;;;;;;;6.22;5.25;;;;;;;;;;4849393;29;32399;-73
2022/01/04 03:20:12;;;;;;;6.05;5.22;;;;;;;;;;4849168;29;32347;-68
2022/01/04 03:22:40;;;;;;;6.25;5.65;;;;;;;;;;4849038;29;32295;-73
2022/01/04 03:25:09;;;;;;;5.70;5.20;;;;;;;;;;4848732;29;35759;-68
2022/01/04 03:27:37;;;;;;;5.65;5.15;;;;;;;;;;4847879;29;32533;-69
2022/01/04 03:30:09;;;;;;;6.25;5.60;;;;;;;;;;4862210;29;32423;-68
2022/01/04 03:32:37;;;;;;;9.75;5.43;;;;;;;;;;4867793;29;32787;-69
2022/01/04 03:35:06;;;;;;;6.18;5.68;;;;;;;;;;4867308;29;34993;-69
2022/01/04 03:37:35;;;;;;;5.95;5.45;;;;;;;;;;4867538;29;32372;-73
2022/01/04 03:40:03;;;;;;;4.97;4.57;;;;;;;;;;4867584;29;32556;-73
2022/01/04 03:42:31;;;;;;;6.93;4.97;;;;;;;;;;4867517;29;32449;-73
2022/01/04 03:44:59;;;;;;;6.13;5.55;;;;;;;;;;4867422;29;32422;-70
2022/01/04 03:47:29;;;;;;;5.95;5.45;;;;;;;;;;4867508;29;35494;-69
2022/01/04 03:49:57;;;;;;;5.28;4.85;;;;;;;;;;4867323;29;32490;-69
2022/01/04 03:52:25;;;;;;;7.10;5.32;;;;;;;;;;4867404;29;32571;-69
2022/01/04 03:54:53;;;;;;;5.00;4.60;;;;;;;;;;4867470;29;32556;-70
2022/01/04 03:57:21;;;;;;;5.28;4.78;;;;;;;;;;4867656;29;35090;-69
2022/01/04 03:59:49;;;;;;;9.40;5.40;;;;;;;;;;4867363;29;32138;-70
2022/01/04 04:02:17;;;;;;;5.35;4.95;;;;;;;;;;4867426;29;32379;-70
2022/01/04 04:04:46;;;;;;;6.47;5.00;;;;;;;;;;4867050;29;32489;-71
2022/01/04 04:07:14;;;;;;;5.57;5.03;;;;;;;;;;4867193;29;32608;-69
2022/01/04 04:09:42;;;;;;;6.60;5.50;;;;;;;;;;4867194;29;34632;-68
2022/01/04 04:12:13;;;;;;;6.05;5.43;;;;;;;;;;4866867;29;32419;-70
2022/01/04 04:14:42;;;;;;;6.93;5.60;;;;;;;;;;4867302;29;32486;-68
2022/01/04 04:17:10;;;;;;;6.05;5.43;;;;;;;;;;4867611;29;32303;-71
2022/01/04 04:19:38;;;;;;;6.07;5.20;;;;;;;;;;4866834;29;35229;-72
2022/01/04 04:22:07;;;;;;;5.47;4.97;;;;;;;;;;4866824;29;32253;-69
2022/01/04 04:24:35;;;;;;;5.75;4.95;;;;;;;;;;4866378;29;32544;-68
2022/01/04 04:27:04;;;;;;;10.10;5.35;;;;;;;;;;4866694;29;32269;-69
2022/01/04 04:29:33;;;;;;;9.23;5.30;;;;;;;;;;4867247;29;32123;-70
2022/01/04 04:32:01;;;;;;;7.78;5.35;;;;;;;;;;4866725;29;35404;-73
2022/01/04 04:34:29;;;;;;;7.07;5.53;;;;;;;;;;4866595;29;32383;-73
2022/01/04 04:36:57;;;;;;;6.78;5.22;;;;;;;;;;4866535;29;32508;-69
2022/01/04 04:39:26;;;;;;;5.65;5.10;;;;;;;;;;4867032;29;32308;-70
2022/01/04 04:41:54;;;;;;;5.68;5.18;;;;;;;;;;4869697;29;33908;-69
2022/01/04 04:44:22;;;;;;;8.60;5.15;;;;;;;;;;4868981;29;32415;-73
2022/01/04 04:46:50;;;;;;;5.63;5.10;;;;;;;;;;4869634;29;32312;-69
2022/01/04 04:49:18;;;;;;;7.63;5.45;;;;;;;;;;4869051;29;32511;-70
2022/01/04 04:51:46;;;;;;;10.00;5.78;;;;;;;;;;4869697;29;32348;-70
2022/01/04 04:54:14;;;;;;;6.90;5.13;;;;;;;;;;4869523;29;34537;-72
2022/01/04 04:56:44;;;;;;;6.90;5.18;;;;;;;;;;4851899;29;32364;-70
2022/01/04 04:59:12;;;;;;;5.68;4.70;;;;;;;;;;4869492;29;32211;-72
2022/01/04 05:01:40;;;;;;;5.72;5.22;;;;;;;;;;4869519;29;32303;-70
2022/01/04 05:04:08;;;;;;;6.20;5.68;;;;;;;;;;4868940;29;33917;-66
2022/01/04 05:06:36;;;;;;;7.20;5.32;;;;;;;;;;4868822;29;32344;-69
2022/01/04 05:09:05;;;;;;;6.78;5.28;;;;;;;;;;4868822;29;32414;-70
2022/01/04 05:11:33;;;;;;;6.10;5.03;;;;;;;;;;4869199;29;32370;-70
2022/01/04 05:14:02;;;;;;;5.88;5.13;;;;;;;;;;4869162;29;32716;-72
2022/01/04 05:16:30;;;;;;;6.00;5.50;;;;;;;;;;4868403;29;35864;-69
2022/01/04 05:18:59;;;;;;;7.35;4.70;;;;;;;;;;4868860;29;32395;-69
2022/01/04 05:21:27;;;;;;;5.13;4.72;;;;;;;;;;4868830;29;32367;-69
2022/01/04 05:23:55;;;;;;;7.60;5.30;;;;;;;;;;4868965;29;32565;-71
2022/01/04 05:26:23;;;;;;;7.40;4.57;;;;;;;;;;4869031;29;33904;-72
2022/01/04 05:28:51;;;;;;;6.38;5.40;;;;;;;;;;4868721;29;32454;-75
2022/01/04 05:31:21;;;;;;;6.07;5.47;;;;;;;;;;4868891;29;32398;-70
2022/01/04 05:33:49;;;;;;;13.25;9.15;;;;;;;;;;4868950;29;32461;-71
2022/01/04 05:36:17;;;;;;;11.73;7.25;;;;;;;;;;4867081;29;32448;-71
2022/01/04 05:38:46;;;;;;;7.05;6.40;;;;;;;;;;4867553;29;34516;-69
2022/01/04 05:41:14;;;;;;;6.80;6.07;;;;;;;;;;4868673;29;32501;-69
2022/01/04 05:43:42;;;;;;;6.90;6.13;;;;;;;;;;4868769;29;32474;-73
2022/01/04 05:46:10;;;;;;;7.40;5.85;;;;;;;;;;4868643;29;32373;-73
2022/01/04 05:48:40;;;;;;;7.00;5.95;;;;;;;;;;4868174;29;34987;-74
2022/01/04 05:51:08;;;;;;;8.82;5.82;;;;;;;;;;4867477;29;32378;-70
2022/01/04 05:53:36;;;;;;;7.40;5.53;;;;;;;;;;4868463;29;32526;-70
2022/01/04 05:56:04;;;;;;;8.15;5.85;;;;;;;;;;4868711;29;32445;-70
2022/01/04 05:58:32;;;;;;;7.30;5.63;;;;;;;;;;4868701;29;32279;-69
2022/01/04 06:01:00;;;;;;;10.88;5.85;;;;;;;;;;4868511;29;33994;-73
2022/01/04 06:03:28;;;;;;;6.55;5.70;;;;;;;;;;4868548;29;32165;-69
2022/01/04 06:05:59;;;;;;;7.55;6.28;;;;;;;;;;4866667;29;32470;-69
2022/01/04 06:08:32;;;;;;;10.30;6.22;;;;;;;;;;4865800;29;32267;-72
2022/01/04 06:11:00;;;;;;;6.13;5.55;;;;;;;;;;4849480;29;34687;-70
2022/01/04 06:16:13;;;;;;;7.78;5.78;;;;;;;;;;4849882;29;32332;-71
2022/01/04 06:18:42;;;;;;;7.20;5.93;;;;;;;;;;4849281;29;32373;-70
2022/01/04 06:21:12;;;;;;;10.50;5.93;;;;;;;;;;4849501;29;32396;-68
2022/01/04 06:23:40;;;;;;;6.47;5.88;;;;;;;;;;4847595;29;34508;-69
2022/01/04 06:26:08;;;;;;;9.27;6.30;;;;;;;;;;4849565;29;32460;-72
2022/01/04 06:28:36;;;;;;;8.18;6.35;;;;;;;;;;4849591;29;32498;-68
2022/01/04 06:31:05;;;;;;;9.35;6.82;;;;;;;;;;4848011;29;32378;-72
2022/01/04 06:33:33;;;;;;;9.85;7.82;;;;;;;;;;4855415;29;34541;-70
2022/01/04 06:36:01;;;;;;;7.75;6.97;;;;;;;;;;4856576;29;32400;-69
2022/01/04 06:38:30;;;;;;;7.53;6.70;;;;;;;;;;4854213;29;32317;-73
2022/01/04 06:40:58;;;;;;;8.27;7.47;;;;;;;;;;4848904;29;32405;-70
2022/01/04 06:43:26;;;;;;;11.63;7.00;;;;;;;;;;4849368;29;32356;-69
2022/01/04 06:45:54;;;;;;;9.32;7.72;;;;;;;;;;4848823;29;34588;-69
2022/01/04 06:48:22;;;;;;;8.30;7.30;;;;;;;;;;4848840;29;32452;-72
2022/01/04 06:50:51;;;;;;;12.20;8.13;;;;;;;;;;4848217;29;32405;-74
2022/01/04 06:53:19;;;;;;;11.95;9.10;;;;;;;;;;4857198;29;32374;-72
2022/01/04 06:55:50;;;;;;;10.77;7.80;;;;;;;;;;4865910;29;34609;-71
2022/01/04 06:58:18;;;;;;;8.55;7.72;;;;;;;;;;4860075;29;32331;-68
2022/01/04 07:00:46;;;;;;;13.38;8.38;;;;;;;;;;4859937;29;32461;-70
2022/01/04 07:03:14;;;;;;;11.55;7.75;;;;;;;;;;4851520;29;32370;-69
2022/01/04 07:05:42;;;;;;;8.48;7.28;;;;;;;;;;4836724;29;32464;-72
2022/01/04 07:08:10;;;;;;;9.43;7.50;;;;;;;;;;4862163;29;35659;-69
2022/01/04 07:10:38;;;;;;;8.07;7.28;;;;;;;;;;4864836;29;32392;-69
2022/01/04 07:13:08;;;;;;;10.43;7.93;;;;;;;;;;4850632;29;32445;-72
2022/01/04 07:15:37;;;;;;;10.68;6.90;;;;;;;;;;4854152;29;32578;-70
2022/01/04 07:18:06;;;;;;;9.82;7.53;;;;;;;;;;4850898;29;34063;-70
2022/01/04 07:20:34;;;;;;;10.88;7.72;;;;;;;;;;4853010;29;32422;-72
2022/01/04 07:23:02;;;;;;;10.77;7.03;;;;;;;;;;4849641;29;32423;-68
2022/01/04 07:25:30;;;;;;;8.63;7.72;;;;;;;;;;4855927;29;32635;-73
2022/01/04 07:27:58;;;;;;;8.60;6.75;;;;;;;;;;4856972;29;32701;-70
2022/01/04 07:30:28;;;;;;;7.43;6.82;;;;;;;;;;4854538;29;35101;-71
2022/01/04 07:32:56;;;;;;;7.95;7.15;;;;;;;;;;4853822;29;32538;-68
2022/01/04 07:35:24;;;;;;;9.50;6.72;;;;;;;;;;4855462;29;32543;-70
2022/01/04 07:37:52;;;;;;;8.00;6.32;;;;;;;;;;4855598;29;32573;-72
2022/01/04 07:40:21;;;;;;;8.00;6.88;;;;;;;;;;4857602;29;34101;-69
2022/01/04 07:42:49;;;;;;;7.22;6.32;;;;;;;;;;4858854;29;32394;-70
2022/01/04 07:45:18;;;;;;;7.65;6.95;;;;;;;;;;4854137;29;32781;-71
2022/01/04 07:47:47;;;;;;;7.35;6.47;;;;;;;;;;4856834;29;32897;-71
2022/01/04 07:50:16;;;;;;;8.93;6.88;;;;;;;;;;4853822;29;32552;-69
2022/01/04 07:52:44;;;;;;;7.43;6.05;;;;;;;;;;4858995;29;36091;-70
2022/01/04 07:55:12;;;;;;;12.35;7.03;;;;;;;;;;4858822;29;32480;-67
2022/01/04 07:57:42;;;;;;;10.43;6.55;;;;;;;;;;4858375;29;32559;-67
2022/01/04 08:00:11;;;;;;;10.00;6.45;;;;;;;;;;4858043;29;32386;-67
2022/01/04 08:02:40;;;;;;;7.65;7.05;;;;;;;;;;4856933;29;34803;-68
2022/01/04 08:05:10;;;;;;;7.22;6.40;;;;;;;;;;4858851;29;32496;-67
2022/01/04 08:07:38;;;;;;;7.13;6.53;;;;;;;;;;4860401;29;32383;-68
2022/01/04 08:10:08;;;;;;;6.82;6.15;;;;;;;;;;4851753;29;32540;-68
2022/01/04 08:12:36;;;;;;;8.30;7.30;;;;;;;;;;4854271;29;32423;-70
2022/01/04 08:15:05;;;;;;;7.43;6.65;;;;;;;;;;4855531;29;34719;-71
2022/01/04 08:17:34;;;;;;;6.95;6.45;;;;;;;;;;4856101;29;32819;-69
2022/01/04 08:20:03;;;;;;;9.60;7.30;;;;;;;;;;4857038;29;32469;-69
2022/01/04 08:22:34;;;;;;;12.18;7.10;;;;;;;;;;4851397;29;32823;-71
2022/01/04 08:25:05;;;;;;;7.93;7.13;;;;;;;;;;4852692;29;34792;-69
2022/01/04 08:27:33;;;;;;;6.90;6.33;;;;;;;;;;4854713;29;34184;-70
2022/01/04 08:30:02;;;;;;;7.93;6.72;;;;;;;;;;4853545;29;32489;-72
2022/01/04 08:32:31;;;;;;;7.07;6.30;;;;;;;;;;4856023;29;32596;-71
2022/01/04 08:34:59;;;;;;;8.57;6.53;;;;;;;;;;4855673;29;32638;-70
2022/01/04 08:37:29;;;;;;;9.77;7.38;;;;;;;;;;4854506;29;34044;-71
2022/01/04 08:39:59;;;;;;;6.65;5.95;;;;;;;;;;4853833;29;32961;-70
2022/01/04 08:42:27;;;;;;;8.32;6.75;;;;;;;;;;4855475;29;32557;-68
2022/01/04 08:44:55;;;;;;;8.82;5.90;;;;;;;;;;4855098;29;32501;-68
2022/01/04 08:47:24;;;;;;;9.15;6.30;;;;;;;;;;4845005;29;34894;-69
2022/01/04 08:49:52;;;;;;;6.78;6.15;;;;;;;;;;4852740;29;32383;-68
2022/01/04 08:52:20;;;;;;;7.05;6.20;;;;;;;;;;4853932;29;32474;-65
2022/01/04 08:54:48;;;;;;;7.63;6.38;;;;;;;;;;4853226;29;32416;-70
2022/01/04 08:57:18;;;;;;;6.88;6.35;;;;;;;;;;4853746;29;32451;-69
2022/01/04 08:59:48;;;;;;;7.50;6.55;;;;;;;;;;4856575;29;33965;-70
2022/01/04 09:02:16;;;;;;;6.53;5.93;;;;;;;;;;4852458;29;32503;-70
2022/01/04 09:04:44;;;;;;;6.57;5.85;;;;;;;;;;4855544;29;32910;-68
2022/01/04 09:07:13;;;;;;;6.88;6.25;;;;;;;;;;4852996;29;32574;-69
2022/01/04 09:09:41;;;;;;;7.07;6.03;;;;;;;;;;4854434;29;33942;-67
2022/01/04 09:12:11;;;;;;;7.20;6.30;;;;;;;;;;4856152;29;32810;-69
2022/01/04 09:14:54;;;;;;;6.60;6.00;;;;;;;;;;4851728;29;32862;-69
2022/01/04 09:20:12;;;;;;;7.65;6.93;;;;;;;;;;4855600;29;32331;-68
2022/01/04 09:22:40;;;;;;;7.43;6.82;;;;;;;;;;4851244;29;35251;-71
2022/01/04 09:25:10;;;;;;;10.38;7.22;;;;;;;;;;4854479;29;32354;-72
2022/01/04 09:27:58;;;;;;;8.40;6.60;;;;;;;;;;4861653;29;32265;-70
2022/01/04 09:30:27;;;;;;;7.15;6.45;;;;;;;;;;4856152;29;32445;-73
2022/01/04 09:32:56;;;;;;;8.30;6.63;;;;;;;;;;4857759;29;34182;-72
2022/01/04 09:35:24;;;;;;;12.27;7.60;;;;;;;;;;4862308;29;32523;-72
2022/01/04 09:37:52;;;;;;;7.18;6.47;;;;;;;;;;4860564;29;32409;-72
2022/01/04 09:40:20;;;;;;;7.82;7.03;;;;;;;;;;4859692;29;32543;-68
2022/01/04 09:42:50;;;;;;;8.60;7.40;;;;;;;;;;4857860;29;32406;-71
2022/01/04 09:45:18;;;;;;;7.60;6.93;;;;;;;;;;4855306;29;36429;-73
2022/01/04 09:47:48;;;;;;;7.95;7.22;;;;;;;;;;4865168;29;32445;-73
2022/01/04 09:50:16;;;;;;;8.00;7.10;;;;;;;;;;4848253;29;32635;-75
2022/01/04 09:52:48;;;;;;;7.50;6.80;;;;;;;;;;4859111;29;32476;-69
2022/01/04 09:55:16;;;;;;;8.98;7.68;;;;;;;;;;4859323;29;34499;-69
2022/01/04 09:57:47;;;;;;;9.95;7.72;;;;;;;;;;4855195;29;32203;-70
2022/01/04 10:00:18;;;;;;;9.65;7.75;;;;;;;;;;4855262;29;32436;-70
2022/01/04 10:02:51;;;;;;;11.10;8.82;;;;;;;;;;4857266;29;32230;-70
2022/01/04 10:05:22;;;;;;;8.75;7.90;;;;;;;;;;4854951;29;32947;-71
2022/01/04 10:08:01;;;;;;;10.85;8.93;;;;;;;;;;4858777;29;34736;-73
2022/01/04 10:10:29;;;;;;;9.60;8.60;;;;;;;;;;4854203;29;32618;-71
2022/01/04 10:13:01;;;;;;;10.05;9.05;;;;;;;;;;4851429;29;32532;-69
2022/01/04 10:15:39;;;;;;;10.63;8.95;;;;;;;;;;4859429;29;32442;-68
2022/01/04 10:18:25;;;;;;;11.50;9.57;;;;;;;;;;4865783;29;35419;-67
2022/01/04 10:21:12;;;;;;;11.68;9.73;;;;;;;;;;4856517;29;32513;-69
2022/01/04 10:23:52;;;;;;;9.85;8.88;;;;;;;;;;4853511;29;32533;-69
2022/01/04 10:26:35;;;;;;;10.68;9.68;;;;;;;;;;4857311;29;32602;-68
2022/01/04 10:29:19;;;;;;;15.45;10.95;;;;;;;;;;4859741;29;32392;-69
2022/01/04 10:31:48;;;;;;;17.48;12.05;;;;;;;;;;4859776;29;34014;-67
2022/01/04 10:34:20;;;;;;;21.02;14.23;;;;;;;;;;4856235;29;32493;-70
2022/01/04 10:36:49;;;;;;;24.25;15.30;;;;;;;;;;4854059;29;32329;-68
2022/01/04 10:39:19;;;;;;;24.05;17.40;;;;;;;;;;4856970;29;32148;-70
2022/01/04 10:41:47;;;;;;;24.80;16.58;;;;;;;;;;4852171;29;35673;-68
2022/01/04 10:44:15;;;;;;;26.63;18.55;;;;;;;;;;4855358;29;32373;-72
2022/01/04 10:46:45;;;;;;;27.27;18.50;;;;;;;;;;4857476;29;32692;-69
2022/01/04 10:49:20;;;;;;;28.30;19.25;;;;;;;;;;4749993;29;32418;-70
2022/01/04 10:52:06;;;;;;;31.83;19.30;;;;;;;;;;4812588;29;32335;-69
2022/01/04 10:54:34;;;;;;;39.60;19.85;;;;;;;;;;4811721;29;34983;-64
2022/01/04 10:57:06;;;;;;;42.90;18.88;;;;;;;;;;4811697;29;32308;-71
2022/01/04 10:59:35;;;;;;;27.23;17.60;;;;;;;;;;4812316;29;32472;-73
2022/01/04 11:02:03;;;;;;;30.25;17.65;;;;;;;;;;4812107;29;32559;-71
2022/01/04 11:04:33;;;;;;;28.65;17.38;;;;;;;;;;4811783;29;34177;-68
2022/01/04 11:07:05;;;;;;;25.38;17.05;;;;;;;;;;4812000;29;32267;-69
2022/01/04 11:09:33;;;;;;;25.00;16.90;;;;;;;;;;4811199;29;32598;-69
2022/01/04 11:12:02;;;;;;;24.75;15.20;;;;;;;;;;4809944;29;32511;-71
2022/01/04 11:14:30;;;;;;;29.70;17.50;;;;;;;;;;4809569;29;32392;-69
2022/01/04 11:16:58;;;;;;;33.28;20.40;;;;;;;;;;4801679;29;32473;-73
2022/01/04 11:19:26;;;;;;;37.60;21.90;;;;;;;;;;4809375;29;32469;-72
2022/01/04 11:21:59;;;;;;;37.35;21.20;;;;;;;;;;4809408;29;32674;-71
2022/01/04 11:24:28;;;;;;;40.25;22.05;;;;;;;;;;4810025;29;32400;-68
2022/01/04 11:26:59;;;;;;;32.92;20.83;;;;;;;;;;4811653;29;35475;-68
2022/01/04 11:29:33;;;;;;;40.33;22.60;;;;;;;;;;4811117;29;32507;-75
2022/01/04 11:32:08;;;;;;;34.65;20.45;;;;;;;;;;4811528;29;32392;-74
2022/01/04 11:34:57;;;;;;;36.17;20.58;;;;;;;;;;4811689;29;32335;-68
2022/01/04 11:37:27;;;;;;;35.78;21.38;;;;;;;;;;4809797;29;32327;-69
2022/01/04 11:39:56;;;;;;;31.92;19.70;;;;;;;;;;4811502;29;32427;-68
2022/01/04 11:42:39;;;;;;;34.15;17.58;;;;;;;;;;4811458;29;32348;-69
2022/01/04 11:45:10;;;;;;;29.55;17.10;;;;;;;;;;4810940;29;32306;-68
2022/01/04 11:47:38;;;;;;;31.00;17.05;;;;;;;;;;4811665;29;32501;-73
2022/01/04 11:50:13;;;;;;;24.02;15.43;;;;;;;;;;4810368;29;34141;-70
2022/01/04 11:52:45;;;;;;;23.88;15.30;;;;;;;;;;4811255;29;32460;-70
2022/01/04 11:55:26;;;;;;;21.77;15.93;;;;;;;;;;4811654;29;32240;-70
2022/01/04 11:57:57;;;;;;;24.95;15.05;;;;;;;;;;4811192;29;32320;-69
2022/01/04 12:00:28;;;;;;;23.13;15.10;;;;;;;;;;4810130;29;32507;-69
2022/01/04 12:03:11;;;;;;;21.15;13.95;;;;;;;;;;4810721;29;32439;-71
2022/01/04 12:05:41;;;;;;;19.48;13.50;;;;;;;;;;4810155;29;32371;-69
2022/01/04 12:08:21;;;;;;;17.45;13.82;;;;;;;;;;4811255;29;32530;-70
2022/01/04 12:10:52;;;;;;;18.75;12.55;;;;;;;;;;4811165;29;32457;-69
2022/01/04 12:13:24;;;;;;;21.85;13.20;;;;;;;;;;4794464;29;34443;-69
2022/01/04 12:16:06;;;;;;;21.48;13.93;;;;;;;;;;4811069;29;32524;-70
2022/01/04 12:19:06;;;;;;;19.40;13.82;;;;;;;;;;4794477;29;32416;-69
2022/01/04 12:21:47;;;;;;;20.00;13.88;;;;;;;;;;4811123;29;32491;-70
2022/01/04 12:24:26;;;;;;;22.27;14.00;;;;;;;;;;4809171;29;32280;-72
2022/01/04 12:27:12;;;;;;;29.52;16.95;;;;;;;;;;4811020;29;32416;-69
2022/01/04 12:29:40;;;;;;;32.83;17.17;;;;;;;;;;4811366;29;32404;-72
2022/01/04 12:32:20;;;;;;;26.40;16.27;;;;;;;;;;4810624;29;32487;-73
2022/01/04 12:35:03;;;;;;;32.03;17.58;;;;;;;;;;4811385;29;32298;-70
2022/01/04 12:37:38;;;;;;;26.83;16.25;;;;;;;;;;4809971;29;34825;-70
2022/01/04 12:40:09;;;;;;;31.95;18.38;;;;;;;;;;4810393;29;32303;-72
2022/01/04 12:42:42;;;;;;;28.95;17.45;;;;;;;;;;4810480;29;32612;-73
2022/01/04 12:45:13;;;;;;;26.45;17.23;;;;;;;;;;4810651;29;32772;-69
2022/01/04 12:47:50;;;;;;;32.83;17.20;;;;;;;;;;4810478;29;32448;-70
2022/01/04 12:50:18;;;;;;;24.58;15.82;;;;;;;;;;4809530;29;32132;-68
2022/01/04 12:52:51;;;;;;;26.50;16.73;;;;;;;;;;4804740;29;32351;-68
2022/01/04 12:55:21;;;;;;;32.53;16.30;;;;;;;;;;4792224;29;32461;-68
2022/01/04 12:57:55;;;;;;;29.25;17.08;;;;;;;;;;4805194;29;32439;-70
2022/01/04 13:00:23;;;;;;;28.55;15.45;;;;;;;;;;4811741;29;35024;-74
2022/01/04 13:02:51;;;;;;;31.02;15.73;;;;;;;;;;4813477;29;32413;-69
2022/01/04 13:05:20;;;;;;;24.35;15.93;;;;;;;;;;4813896;29;32536;-68
2022/01/04 13:07:48;;;;;;;24.08;15.73;;;;;;;;;;4813354;29;32505;-68
2022/01/04 13:10:17;;;;;;;22.77;15.80;;;;;;;;;;4812970;29;32659;-72
2022/01/04 13:12:50;;;;;;;35.10;17.13;;;;;;;;;;4795957;29;32787;-71
2022/01/04 13:15:22;;;;;;;28.45;16.83;;;;;;;;;;4813080;29;32357;-71
2022/01/04 13:17:53;;;;;;;29.50;17.52;;;;;;;;;;4813311;29;32316;-70
2022/01/04 13:20:24;;;;;;;29.80;17.35;;;;;;;;;;4813194;29;32330;-72
2022/01/04 13:22:58;;;;;;;29.45;16.50;;;;;;;;;;4813163;29;34520;-69
2022/01/04 13:25:28;;;;;;;29.83;17.38;;;;;;;;;;4811932;29;32370;-73
2022/01/04 13:28:04;;;;;;;29.00;17.00;;;;;;;;;;4812761;29;32366;-70
2022/01/04 13:30:32;;;;;;;26.38;16.27;;;;;;;;;;4795070;29;32521;-71
2022/01/04 13:33:03;;;;;;;31.38;18.60;;;;;;;;;;4794211;29;35653;-71
2022/01/04 13:35:33;;;;;;;31.10;17.42;;;;;;;;;;4794999;29;32286;-69
2022/01/04 13:38:05;;;;;;;37.33;17.13;;;;;;;;;;4793935;29;32352;-69
2022/01/04 13:40:34;;;;;;;31.63;17.05;;;;;;;;;;4794337;29;32260;-70
2022/01/04 13:43:06;;;;;;;27.65;16.13;;;;;;;;;;4794617;29;32330;-73
2022/01/04 13:45:43;;;;;;;24.50;16.08;;;;;;;;;;4794006;29;34223;-68
2022/01/04 13:48:13;;;;;;;26.50;16.52;;;;;;;;;;4793811;29;32716;-72
2022/01/04 13:50:43;;;;;;;27.35;15.95;;;;;;;;;;4793919;29;32381;-71
2022/01/04 13:53:15;;;;;;;26.42;16.35;;;;;;;;;;4794739;29;32429;-68
2022/01/04 13:56:01;;;;;;;30.35;17.08;;;;;;;;;;4794508;29;35623;-66
2022/01/04 13:58:43;;;;;;;25.35;16.80;;;;;;;;;;4794368;29;32381;-68
2022/01/04 14:01:21;;;;;;;28.73;18.10;;;;;;;;;;4794717;29;32487;-73
2022/01/04 14:03:51;;;;;;;28.58;17.08;;;;;;;;;;4794159;29;32385;-69
2022/01/04 14:06:31;;;;;;;26.52;17.27;;;;;;;;;;4794153;29;32341;-69
2022/01/04 14:09:00;;;;;;;23.92;16.70;;;;;;;;;;4793845;29;34607;-70
2022/01/04 14:11:29;;;;;;;32.00;17.52;;;;;;;;;;4794059;29;32352;-69
2022/01/04 14:14:12;;;;;;;25.83;16.70;;;;;;;;;;4807474;29;32341;-69
2022/01/04 14:16:59;;;;;;;26.30;16.23;;;;;;;;;;4812136;29;32540;-69
2022/01/04 14:19:29;;;;;;;28.83;16.67;;;;;;;;;;4811442;29;34588;-71
2022/01/04 14:22:03;;;;;;;26.35;16.77;;;;;;;;;;4812260;29;32401;-73
2022/01/04 14:24:41;;;;;;;24.98;15.15;;;;;;;;;;4812498;29;32416;-70
2022/01/04 14:27:12;;;;;;;22.92;15.20;;;;;;;;;;4812470;29;32540;-69
2022/01/04 14:29:45;;;;;;;23.77;15.82;;;;;;;;;;4812555;29;32507;-68
2022/01/04 14:32:22;;;;;;;28.75;16.33;;;;;;;;;;4812038;29;35415;-70
2022/01/04 14:34:51;;;;;;;21.25;14.20;;;;;;;;;;4812133;29;32450;-68
2022/01/04 14:37:19;;;;;;;21.13;14.52;;;;;;;;;;4811715;29;32231;-70
2022/01/04 14:39:47;;;;;;;21.20;13.45;;;;;;;;;;4796191;29;32438;-72
2022/01/04 14:42:15;;;;;;;22.33;13.40;;;;;;;;;;4811585;29;35141;-70
2022/01/04 14:44:45;;;;;;;17.90;12.07;;;;;;;;;;4811351;29;32597;-69
2022/01/04 14:47:13;;;;;;;19.42;13.52;;;;;;;;;;4812234;29;32442;-74
2022/01/04 14:49:42;;;;;;;19.60;12.40;;;;;;;;;;4812814;29;32435;-71
2022/01/04 14:52:10;;;;;;;17.67;12.30;;;;;;;;;;4812196;29;32262;-71
2022/01/04 14:54:39;;;;;;;14.18;11.45;;;;;;;;;;4811490;29;34259;-73
2022/01/04 14:57:08;;;;;;;17.15;12.70;;;;;;;;;;4811886;29;32398;-71